Elizabeth City Regional Airport & Coast Guard Air Station Elizabeth City US
ICAO: KECG
IATA: ECG
Category: Medium
Scheduled Services: No

Elevation: 12 ft
TransAlt. 18000 ft.

Airport Communications:
NORFOLK APP/DEP:119.55
AIR:34.5
ASOS:118.525
CTAF:120.5
GND:121.9
TWR:120.5
UNICOM:122.95

KECG Zoom In..

If you have problems with the map follow the link
https://www.worldairports.se/pages/airport.php?
ICAO=KECG

Runways:

(A) RW 01 length 4518 ft width 150 ft
---- / hdg 9

(B) RW 10 length 7219 ft width 150 ft
ILS 111.35 / hdg 99

(C) RW 19 length 4518 ft width 150 ft
---- / hdg 189

(D) RW 28 length 7219 ft width 150 ft
---- / hdg 279

Location; KECG
Day. 22 / Time. 16.16 Zulu
* Altimeter: 30.38
* Temperature: 07° c. 44.6°f.
* Wind from: 040° Speed 12 kn.
Dewpoint: 05° c.
Visibility: 10 Statute Miles.
Clouds: Few 1300 ft.
Clouds: Overcast 2500 ft.

KECG 221616Z 04012KT 10SM FEW013 OVC025 07/05 A3038 RMK AO2 RAE02 P0000 T00720050


Wind From 040°
Speed 12 kn.

 
 
jpsmedia.com for Web Design worldairports.se 2019   terms of use